Home > Products > Valid Products > TAF

000
FTUS43 KUNR 271100
TAFGCC
TAF
KGCC 271128Z 2712/2812 22013KT P6SM SCT250=



000
FTUS43 KUNR 271100
TAFRAP
TAF
KRAP 271128Z 2712/2812 VRB06KT P6SM SCT250=



000
FTUS43 KUNR 270500
TAFRAP
TAF
KRAP 270520Z 2706/2806 VRB05KT P6SM SCT250=



000
FTUS43 KUNR 270500
TAFGCC
TAF
KGCC 270520Z 2706/2806 22014KT P6SM SCT250=



000
FTUS43 KUNR 262300
TAFRAP
TAF
KRAP 262320Z 2700/2724 VRB05KT P6SM SCT250=



000
FTUS43 KUNR 262300
TAFGCC
TAF
KGCC 262320Z 2700/2724 22014KT P6SM SCT250=



000
FTUS43 KUNR 261700
TAFRAP
TAF
KRAP 261722Z 2618/2718 32013KT P6SM SKC
     FM262300 VRB05KT P6SM SCT250=



000
FTUS43 KUNR 261700
TAFGCC
TAF
KGCC 261722Z 2618/2718 26011KT P6SM SCT250
     FM270000 22014KT P6SM SCT250=



000
FTUS43 KUNR 261500 AAA
TAFRAP
TAF AMD
KRAP 261526Z 2615/2712 32007KT P6SM SCT250
     FM261700 32014KT P6SM SCT250
     FM262300 VRB05KT P6SM SCT250=



000
FTUS43 KUNR 261100
TAFGCC
TAF
KGCC 261123Z 2612/2712 25011KT P6SM SCT250
     FM270000 22014KT P6SM SCT250=



000
FTUS43 KUNR 261100
TAFRAP
TAF
KRAP 261123Z 2612/2712 32015KT P6SM SCT250=



000
FTUS43 KUNR 260500
TAFRAP
TAF
KRAP 260520Z 2606/2706 32010KT P6SM BKN200=



000
FTUS43 KUNR 260500
TAFGCC
TAF
KGCC 260520Z 2606/2706 25010KT P6SM BKN150=



000
FTUS43 KUNR 252300
TAFGCC
TAF
KGCC 252326Z 2600/2624 27010KT P6SM SCT150=



000
FTUS43 KUNR 252300
TAFRAP
TAF
KRAP 252326Z 2600/2624 30010KT P6SM SCT200=



000
FTUS43 KUNR 251700
TAFGCC
TAF
KGCC 251734Z 2518/2618 23012KT P6SM BKN050
     FM252300 27010KT P6SM SKC=



000
FTUS43 KUNR 251700
TAFRAP
TAF
KRAP 251734Z 2518/2618 VRB05KT P6SM SCT070
     FM260200 30010KT P6SM SKC=



000
FTUS43 KUNR 251300 AAA
TAFGCC
TAF AMD
KGCC 251300Z 2513/2612 27007KT P6SM SCT040 BKN070
     FM251600 26012KT P6SM BKN040
     FM252300 25010KT P6SM SKC=



000
FTUS43 KUNR 251200 AAA
TAFRAP
TAF AMD
KRAP 251258Z 2513/2612 35010KT P6SM SKC
     FM251700 VRB05KT P6SM SCT150=



000
FTUS43 KUNR 251100
TAFRAP
TAF
KRAP 251126Z 2512/2612 33015KT P6SM SKC
     FM251700 VRB05KT P6SM SCT150=



000
FTUS43 KUNR 251100
TAFGCC
TAF
KGCC 251126Z 2512/2612 28007KT P6SM SCT200
     FM251600 26012KT P6SM SCT040
     FM252300 25010KT P6SM SKC=



000
FTUS43 KUNR 250500
TAFGCC
TAF
KGCC 250520Z 2506/2606 28013KT P6SM SCT100=



000
FTUS43 KUNR 250500
TAFRAP
TAF
KRAP 250520Z 2506/2606 33020G30KT P6SM SCT060
     FM250800 33014KT P6SM SCT150=



000
FTUS43 KUNR 250400 AAB
TAFRAP
TAF AMD
KRAP 250401Z 2504/2524 33025G36KT P6SM SCT060
     FM250500 33017KT P6SM SKC=



000
FTUS43 KUNR 250100 AAA
TAFRAP
TAF AMD
KRAP 250131Z 2502/2524 33033G45KT P6SM BKN040
     FM250300 33024G34KT P6SM SKC
     FM250400 33017KT P6SM SKC=



000
FTUS43 KUNR 242300
TAFGCC
TAF
KGCC 242320Z 2500/2524 30019KT P6SM -SHRA BKN050
     FM250100 30012KT P6SM FEW250=



000
FTUS43 KUNR 242300
TAFRAP
TAF
KRAP 242320Z 2500/2524 33030G45KT P6SM SCT050
     FM250100 33024G34KT P6SM SKC
     FM250300 33017KT P6SM SKC=



000
FTUS43 KUNR 242200 AAA
TAFGCC
TAF AMD
KGCC 242257Z 2423/2518 30019KT P6SM -SHRA SCT050
     FM250100 30012KT P6SM FEW250=



000
FTUS43 KUNR 241900 AAA
TAFRAP
TAF AMD
KRAP 241900Z 2419/2518 33035G47KT P6SM SCT050
     FM242300 33024G34KT P6SM SKC
     FM250300 33017KT P6SM SKC=



000
FTUS43 KUNR 241700 CCA
TAFGCC
TAF COR
KGCC 241759Z 2418/2518 29017KT P6SM -SHRA BKN080
     FM242000 32020G30KT P6SM -SHRA BKN040
     FM250100 30012KT P6SM FEW250=



000
FTUS43 KUNR 241700
TAFGCC
TAF
KGCC 241731Z 2418/2518 27017KT P6SM -SHRA BKN080
     FM242000 32020G30KT P6SM -SHRA BKN040
     FM250100 30012KT P6SM FEW250=



000
FTUS43 KUNR 241700
TAFRAP
TAF
KRAP 241731Z 2418/2518 31020G30KT P6SM SCT050
     FM242000 33035G47KT P6SM SCT050
     FM242300 33024G34KT P6SM SKC
     FM250300 33017KT P6SM SKC=



    US Dept of Commerce
    National Oceanic and Atmospheric Administration
    National Weather Service
    1325 East West Highway
    Silver Spring, MD 20910
    Page Author: NWS Internet Services Team
Disclaimer
Information Quality
Credits
Glossary
Privacy Policy
Freedom of Information Act (FOIA)
About Us
Career Opportunities